Time;durP1;ratioP1;P1;durP2;ratioP2;P2;SDS_P1;SDS_P2;PMS_P1;PMS_P2;Temp;Humidity;BMP_temperature;BMP_pressure;BME280_temperature;BME280_humidity;BME280_pressure;Samples;Min_cycle;Max_cycle;Signal;HPM_P1;HPM_P2
2021/04/30 00:02:26;;;;;;;53.35;37.98;;;;;;;11.81;73.65;97569.47;1827520;77;21058;-66
2021/04/30 00:04:56;;;;;;;51.98;37.65;;;;;;;11.78;73.39;97566.17;1825290;77;21548;-67
2021/04/30 00:07:25;;;;;;;50.43;37.20;;;;;;;11.76;73.16;97574.38;1806961;77;21569;-66
2021/04/30 00:09:53;;;;;;;49.80;36.23;;;;;;;11.72;73.13;97572.96;1807064;77;20916;-69
2021/04/30 00:12:20;;;;;;;48.63;34.98;;;;;;;11.68;73.04;97575.08;1821873;77;21433;-66
2021/04/30 00:14:50;;;;;;;49.45;37.08;;;;;;;11.64;73.01;97574.12;1815849;77;20935;-66
2021/04/30 00:17:18;;;;;;;51.35;37.35;;;;;;;11.59;73.10;97575.88;1829302;77;20912;-67
2021/04/30 00:19:45;;;;;;;48.08;33.73;;;;;;;11.55;73.34;97568.54;1818249;77;21103;-67
2021/04/30 00:22:14;;;;;;;36.83;28.32;;;;;;;11.51;73.42;97579.22;1832173;77;20928;-65
2021/04/30 00:24:43;;;;;;;33.60;26.50;;;;;;;11.47;73.69;97577.77;1835669;77;21341;-66
2021/04/30 00:27:10;;;;;;;38.13;28.62;;;;;;;11.46;73.92;97584.16;1826160;77;21093;-66
2021/04/30 00:29:39;;;;;;;19.17;15.30;;;;;;;11.44;74.02;97574.00;1810943;77;20916;-67
2021/04/30 00:32:07;;;;;;;26.80;22.10;;;;;;;11.45;74.03;97574.37;1821776;77;20924;-65
2021/04/30 00:34:35;;;;;;;30.48;20.95;;;;;;;11.47;74.10;97578.27;1802387;77;20947;-67
2021/04/30 00:37:04;;;;;;;29.20;22.20;;;;;;;11.49;74.23;97577.13;1830113;77;21364;-66
2021/04/30 00:39:32;;;;;;;24.92;17.82;;;;;;;11.49;74.46;97573.09;1831433;78;20917;-66
2021/04/30 00:42:00;;;;;;;23.18;17.57;;;;;;;11.50;74.32;97571.28;1834514;78;21525;-67
2021/04/30 00:44:29;;;;;;;18.35;13.58;;;;;;;11.52;74.35;97564.77;1826666;77;21548;-67
2021/04/30 00:46:58;;;;;;;23.67;17.23;;;;;;;11.55;74.07;97571.73;1815557;77;20959;-66
2021/04/30 00:49:26;;;;;;;22.60;18.80;;;;;;;11.57;74.09;97567.94;1812611;77;21190;-66
2021/04/30 00:51:55;;;;;;;22.42;19.32;;;;;;;11.61;74.08;97573.05;1827078;77;20905;-66
2021/04/30 00:54:22;;;;;;;21.87;18.73;;;;;;;11.60;73.99;97566.80;1811771;77;21102;-66
2021/04/30 00:56:51;;;;;;;23.32;17.40;;;;;;;11.60;73.79;97569.98;1822405;77;20920;-66
2021/04/30 00:59:20;;;;;;;19.77;15.72;;;;;;;11.58;73.69;97564.74;1829633;77;20866;-66
2021/04/30 01:01:48;;;;;;;18.67;16.02;;;;;;;11.57;73.57;97567.94;1830705;77;21302;-66
2021/04/30 01:04:18;;;;;;;19.55;15.78;;;;;;;11.56;73.41;97564.88;1831490;78;21533;-65
2021/04/30 01:06:49;;;;;;;15.70;14.10;;;;;;;11.54;73.52;97561.48;1824828;77;32833;-67
2021/04/30 01:09:18;;;;;;;20.02;15.75;;;;;;;11.52;73.49;97564.77;1827184;77;20932;-66
2021/04/30 01:11:46;;;;;;;17.65;14.30;;;;;;;11.51;73.53;97565.77;1811677;77;21056;-66
2021/04/30 01:14:15;;;;;;;17.20;15.38;;;;;;;11.50;73.50;97566.75;1823558;77;21378;-66
2021/04/30 01:16:43;;;;;;;17.55;14.90;;;;;;;11.49;73.38;97570.41;1829033;77;20939;-66
2021/04/30 01:19:21;;;;;;;20.10;16.70;;;;;;;11.45;73.30;97567.65;1820476;77;20885;-66
2021/04/30 01:21:55;;;;;;;18.70;15.08;;;;;;;11.41;73.36;97567.54;1833642;77;21512;-65
2021/04/30 01:24:24;;;;;;;16.65;14.70;;;;;;;11.39;73.54;97556.07;1834783;77;21071;-65
2021/04/30 01:26:55;;;;;;;16.23;14.53;;;;;;;11.35;73.77;97564.91;1836659;77;21352;-66
2021/04/30 01:29:23;;;;;;;17.77;12.93;;;;;;;11.32;73.80;97556.23;1835628;77;21043;-67
2021/04/30 01:31:50;;;;;;;14.95;12.37;;;;;;;11.30;73.91;97562.23;1820863;77;20904;-66
2021/04/30 01:34:19;;;;;;;14.90;13.00;;;;;;;11.26;74.04;97546.87;1820767;77;21028;-66
2021/04/30 01:36:46;;;;;;;13.62;12.23;;;;;;;11.26;74.09;97550.91;1830264;77;20992;-66
2021/04/30 01:39:14;;;;;;;13.05;11.78;;;;;;;11.25;74.18;97553.72;1834172;77;21425;-65
2021/04/30 01:41:42;;;;;;;10.53;9.43;;;;;;;11.23;74.41;97544.95;1825055;77;21034;-66
2021/04/30 01:44:13;;;;;;;12.70;10.72;;;;;;;11.21;74.87;97551.30;1805545;77;20916;-66
2021/04/30 01:46:41;;;;;;;14.55;11.00;;;;;;;11.22;74.79;97550.80;1809902;77;20896;-66
2021/04/30 01:49:11;;;;;;;12.37;10.53;;;;;;;11.23;74.71;97539.57;1834308;77;20932;-66
2021/04/30 01:51:40;;;;;;;12.98;10.93;;;;;;;11.23;74.67;97544.95;1827440;77;21253;-66
2021/04/30 01:54:07;;;;;;;10.65;8.98;;;;;;;11.23;74.69;97543.60;1804390;77;20952;-66
2021/04/30 01:56:36;;;;;;;11.93;10.68;;;;;;;11.22;74.72;97546.77;1806947;77;20916;-66
2021/04/30 01:59:05;;;;;;;10.80;9.75;;;;;;;11.20;74.64;97549.58;1821678;77;21015;-67
2021/04/30 02:01:32;;;;;;;11.95;10.65;;;;;;;11.18;74.48;97546.19;1806475;77;21115;-66
2021/04/30 02:04:07;;;;;;;10.93;9.63;;;;;;;11.18;74.58;97550.22;1819204;77;21356;-67
2021/04/30 02:06:32;;;;;;;14.28;10.75;;;;;;;11.16;74.79;97550.84;1833171;78;20920;-66
2021/04/30 02:08:59;;;;;;;9.48;7.90;;;;;;;11.15;74.79;97546.44;1832454;77;21001;-66
2021/04/30 02:11:27;;;;;;;10.85;9.75;;;;;;;11.14;74.86;97546.58;1827796;78;20959;-65
2021/04/30 02:13:55;;;;;;;8.18;6.87;;;;;;;11.13;74.95;97550.23;1829996;77;20936;-66
2021/04/30 02:16:22;;;;;;;9.53;8.55;;;;;;;11.11;75.17;97539.61;1820244;77;21495;-66
2021/04/30 02:18:52;;;;;;;10.15;9.13;;;;;;;11.11;75.07;97542.80;1806166;77;22304;-66
2021/04/30 02:21:20;;;;;;;10.65;9.23;;;;;;;11.12;75.09;97544.02;1815772;77;20931;-66
2021/04/30 02:23:47;;;;;;;8.35;6.47;;;;;;;11.10;75.10;97537.93;1826423;77;20987;-66
2021/04/30 02:26:17;;;;;;;10.18;7.80;;;;;;;11.08;75.03;97542.56;1833573;78;21092;-66
2021/04/30 02:28:45;;;;;;;7.87;7.08;;;;;;;11.06;75.16;97533.78;1820176;77;21372;-67
2021/04/30 02:31:13;;;;;;;8.20;6.00;;;;;;;11.06;75.17;97530.26;1824524;77;21026;-66
2021/04/30 02:33:42;;;;;;;8.83;6.33;;;;;;;11.04;75.10;97525.02;1821779;77;21445;-65
2021/04/30 02:36:10;;;;;;;9.23;6.33;;;;;;;11.06;75.14;97528.91;1818091;77;20920;-66
2021/04/30 02:38:37;;;;;;;6.50;5.85;;;;;;;11.05;75.07;97526.70;1812596;77;20912;-66
2021/04/30 02:41:06;;;;;;;6.87;6.12;;;;;;;11.05;75.12;97522.67;1806031;77;21451;-67
2021/04/30 02:43:34;;;;;;;9.75;5.72;;;;;;;11.06;75.21;97525.72;1834791;77;21012;-66
2021/04/30 02:46:02;;;;;;;31.82;7.72;;;;;;;11.08;75.19;97527.78;1836032;77;20932;-66
2021/04/30 02:48:34;;;;;;;11.40;5.78;;;;;;;11.09;74.98;97526.80;1828672;77;20885;-66
2021/04/30 02:51:05;;;;;;;20.00;7.00;;;;;;;11.09;74.84;97529.50;1813496;77;20935;-67
2021/04/30 02:53:33;;;;;;;13.18;5.53;;;;;;;11.10;74.81;97529.87;1822175;77;22250;-66
2021/04/30 02:56:01;;;;;;;17.25;6.85;;;;;;;11.08;74.85;97521.06;1834034;77;20889;-67
2021/04/30 02:58:28;;;;;;;2.92;1.95;;;;;;;11.07;74.88;97527.44;1834834;78;20948;-65
2021/04/30 03:00:58;;;;;;;7.17;3.40;;;;;;;11.05;75.66;97529.38;1815060;77;21098;-67
2021/04/30 03:03:26;;;;;;;9.53;4.95;;;;;;;11.09;75.50;97525.47;1832394;77;20957;-67
2021/04/30 03:05:55;;;;;;;6.20;4.30;;;;;;;11.14;75.30;97524.57;1833628;78;21379;-66
2021/04/30 03:08:23;;;;;;;8.90;4.28;;;;;;;11.19;75.12;97522.83;1835136;77;20912;-66
2021/04/30 03:10:50;;;;;;;9.28;3.90;;;;;;;11.23;75.03;97518.07;1818287;77;20904;-67
2021/04/30 03:13:18;;;;;;;10.23;3.33;;;;;;;11.25;74.90;97513.41;1828552;77;20940;-67
2021/04/30 03:15:47;;;;;;;2.15;1.62;;;;;;;11.28;74.93;97514.48;1832508;78;20877;-66
2021/04/30 03:18:16;;;;;;;1.12;1.00;;;;;;;11.31;75.17;97508.84;1830735;77;21907;-66
2021/04/30 03:20:44;;;;;;;1.95;0.93;;;;;;;11.36;75.39;97513.32;1833684;77;21016;-66
2021/04/30 03:23:12;;;;;;;1.02;0.82;;;;;;;11.46;75.44;97519.62;1814084;77;20939;-66
2021/04/30 03:25:40;;;;;;;1.52;1.35;;;;;;;11.57;75.25;97514.15;1834350;78;21044;-66
2021/04/30 03:28:08;;;;;;;1.75;1.20;;;;;;;11.68;74.94;97516.37;1828630;77;21036;-66
2021/04/30 03:30:36;;;;;;;2.83;1.70;;;;;;;11.80;74.57;97513.95;1818827;77;21372;-66
2021/04/30 03:33:05;;;;;;;0.80;0.80;;;;;;;11.90;74.24;97512.62;1827997;77;20992;-66
2021/04/30 03:35:33;;;;;;;1.00;0.80;;;;;;;12.00;73.92;97519.41;1805857;77;21121;-67
2021/04/30 03:38:02;;;;;;;1.32;1.22;;;;;;;12.09;73.62;97512.73;1814029;77;20921;-67
2021/04/30 03:40:30;;;;;;;1.02;0.93;;;;;;;12.17;73.40;97516.09;1832423;77;20972;-68
2021/04/30 03:42:58;;;;;;;0.82;0.60;;;;;;;12.25;73.29;97515.37;1833800;78;21337;-67
2021/04/30 03:45:26;;;;;;;1.42;0.88;;;;;;;12.36;72.98;97519.79;1820605;77;21473;-67
2021/04/30 03:47:54;;;;;;;0.62;0.62;;;;;;;12.46;72.70;97523.36;1825108;77;21007;-66
2021/04/30 03:50:22;;;;;;;1.40;0.98;;;;;;;12.56;72.34;97530.94;1836717;77;21083;-66
2021/04/30 03:52:52;;;;;;;0.90;0.80;;;;;;;12.68;72.08;97524.94;1826785;77;20901;-66
2021/04/30 03:55:20;;;;;;;2.25;0.78;;;;;;;12.82;71.88;97537.98;1819191;77;21364;-66
2021/04/30 03:57:48;;;;;;;1.35;0.93;;;;;;;12.91;71.68;97534.95;1805542;77;21023;-66
2021/04/30 04:00:19;;;;;;;1.32;1.10;;;;;;;12.99;71.62;97540.95;1822770;77;20968;-68
2021/04/30 04:02:47;;;;;;;1.42;1.32;;;;;;;13.06;71.62;97539.91;1810124;77;20884;-67
2021/04/30 04:05:15;;;;;;;1.47;1.37;;;;;;;13.11;71.57;97541.66;1835302;78;21047;-67
2021/04/30 04:07:46;;;;;;;3.22;1.75;;;;;;;13.14;71.60;97541.38;1819863;77;21342;-66
2021/04/30 04:10:13;;;;;;;3.67;1.80;;;;;;;13.18;71.72;97544.99;1832492;77;20944;-67
2021/04/30 04:12:40;;;;;;;2.40;1.98;;;;;;;13.21;71.77;97534.40;1820935;77;21461;-66
2021/04/30 04:15:10;;;;;;;2.87;2.08;;;;;;;13.24;71.86;97538.16;1835045;77;20920;-67
2021/04/30 04:17:37;;;;;;;2.72;2.45;;;;;;;13.28;72.01;97537.39;1828446;77;20925;-67
2021/04/30 04:20:07;;;;;;;4.30;2.65;;;;;;;13.29;72.15;97542.64;1834547;78;21370;-65
2021/04/30 04:22:36;;;;;;;3.90;2.62;;;;;;;13.29;72.40;97550.73;1819624;77;21004;-66
2021/04/30 04:25:08;;;;;;;3.62;2.10;;;;;;;13.31;72.76;97553.28;1824151;77;20932;-67
2021/04/30 04:27:35;;;;;;;2.33;1.85;;;;;;;13.33;72.92;97554.02;1809046;77;20916;-65
2021/04/30 04:30:08;;;;;;;2.02;1.62;;;;;;;13.33;73.05;97558.06;1811688;77;21027;-67
2021/04/30 04:32:35;;;;;;;2.92;2.08;;;;;;;13.34;72.94;97560.61;1815548;77;21425;-68
2021/04/30 04:35:03;;;;;;;2.65;1.92;;;;;;;13.34;72.88;97561.96;1819949;77;21496;-66
2021/04/30 04:37:31;;;;;;;2.22;1.85;;;;;;;13.35;73.00;97556.93;1814798;77;20904;-67
2021/04/30 04:39:59;;;;;;;2.83;1.87;;;;;;;13.36;72.92;97558.61;1814766;77;21640;-67
2021/04/30 04:42:27;;;;;;;1.02;0.93;;;;;;;13.37;72.99;97563.53;1836200;77;20897;-66
2021/04/30 04:44:56;;;;;;;1.10;1.00;;;;;;;13.38;72.90;97563.86;1829250;77;22164;-67
2021/04/30 04:47:24;;;;;;;1.40;0.98;;;;;;;13.40;72.85;97561.02;1831462;77;21071;-66
2021/04/30 04:49:53;;;;;;;3.60;1.02;;;;;;;13.40;72.91;97566.42;1820440;77;20945;-67
2021/04/30 04:52:23;;;;;;;1.60;1.47;;;;;;;13.42;72.88;97567.98;1822848;77;20940;-67
2021/04/30 04:54:51;;;;;;;2.10;1.47;;;;;;;13.45;72.88;97566.83;1822810;77;21004;-66
2021/04/30 04:57:18;;;;;;;1.50;1.30;;;;;;;13.45;72.96;97565.47;1816165;77;21362;-67
2021/04/30 04:59:47;;;;;;;1.10;0.93;;;;;;;13.44;72.97;97559.75;1805516;77;21423;-67
2021/04/30 05:02:14;;;;;;;2.58;1.32;;;;;;;13.44;72.83;97556.55;1827225;77;21019;-66
2021/04/30 05:04:43;;;;;;;1.52;0.70;;;;;;;13.46;72.60;97557.23;1810243;77;20904;-66
2021/04/30 05:07:13;;;;;;;1.12;1.02;;;;;;;13.48;72.51;97554.39;1806519;77;20868;-67
2021/04/30 05:09:41;;;;;;;1.77;1.00;;;;;;;13.50;72.38;97557.82;1813553;77;21623;-67
2021/04/30 05:12:10;;;;;;;1.17;1.00;;;;;;;13.50;72.45;97557.31;1834390;77;21127;-66
2021/04/30 05:14:38;;;;;;;1.50;1.00;;;;;;;13.52;72.52;97564.75;1826964;77;20934;-67
2021/04/30 05:17:08;;;;;;;1.30;0.80;;;;;;;13.53;72.47;97566.47;1831532;77;20913;-68
2021/04/30 05:19:35;;;;;;;1.60;1.02;;;;;;;13.57;72.43;97565.67;1809604;77;20884;-68
2021/04/30 05:22:10;;;;;;;2.85;1.20;;;;;;;13.60;72.42;97570.77;1810136;77;22219;-68
2021/04/30 05:24:34;;;;;;;3.47;1.77;;;;;;;13.64;72.36;97568.15;1806512;77;20999;-67
2021/04/30 05:27:10;;;;;;;3.87;1.95;;;;;;;13.66;72.68;97567.49;1814419;77;20924;-68
2021/04/30 05:29:43;;;;;;;5.75;2.33;;;;;;;13.68;72.51;97574.94;1824231;77;21450;-67
2021/04/30 05:32:11;;;;;;;2.15;1.40;;;;;;;13.71;72.29;97577.85;1828808;77;20976;-68
2021/04/30 05:34:42;;;;;;;2.50;1.27;;;;;;;13.76;72.06;97581.46;1825122;77;21200;-68
2021/04/30 05:37:09;;;;;;;3.83;2.40;;;;;;;13.80;71.96;97582.88;1812461;77;20939;-68
2021/04/30 05:39:37;;;;;;;9.43;5.30;;;;;;;13.85;72.71;97591.38;1833591;77;20929;-66
2021/04/30 05:42:08;;;;;;;8.70;5.03;;;;;;;13.90;73.16;97591.27;1812181;77;21051;-66
2021/04/30 05:44:37;;;;;;;7.75;6.50;;;;;;;13.95;72.97;97589.99;1819768;77;20980;-67
2021/04/30 05:47:05;;;;;;;10.85;5.78;;;;;;;14.00;72.82;97596.66;1836473;77;21197;-67
2021/04/30 05:49:35;;;;;;;6.50;5.37;;;;;;;14.04;72.80;97593.16;1824819;77;20940;-67
2021/04/30 05:52:05;;;;;;;12.43;5.47;;;;;;;14.10;73.06;97595.27;1834367;78;21114;-67
2021/04/30 05:54:36;;;;;;;3.62;3.17;;;;;;;14.16;73.50;97589.28;1826624;77;21091;-67
2021/04/30 05:57:05;;;;;;;4.00;3.30;;;;;;;14.25;73.25;97591.56;1807178;77;20999;-67
2021/04/30 05:59:33;;;;;;;4.97;4.47;;;;;;;14.32;72.97;97592.69;1822706;77;21178;-67
2021/04/30 06:02:01;;;;;;;5.10;3.17;;;;;;;14.42;72.94;97596.17;1832077;77;21241;-67
2021/04/30 06:04:31;;;;;;;3.37;2.72;;;;;;;14.52;72.67;97597.97;1825949;77;20924;-66
2021/04/30 06:07:00;;;;;;;2.80;1.95;;;;;;;14.60;71.70;97591.36;1813800;77;21023;-67
2021/04/30 06:09:29;;;;;;;2.30;2.10;;;;;;;14.71;71.18;97588.44;1817118;77;21027;-68
2021/04/30 06:11:58;;;;;;;2.87;2.25;;;;;;;14.83;70.81;97585.52;1814020;77;21241;-67
2021/04/30 06:14:33;;;;;;;3.98;1.98;;;;;;;14.92;70.30;97581.89;1816041;77;20959;-64
2021/04/30 06:17:00;;;;;;;5.10;3.83;;;;;;;15.04;70.05;97586.08;1832848;77;20933;-67
2021/04/30 06:19:28;;;;;;;2.87;2.02;;;;;;;15.14;69.50;97585.48;1816464;77;21007;-65
2021/04/30 06:21:56;;;;;;;2.92;2.33;;;;;;;15.24;68.79;97593.50;1815538;77;20979;-63
2021/04/30 06:24:25;;;;;;;3.92;2.75;;;;;;;15.35;68.54;97599.18;1817608;78;21388;-65
2021/04/30 06:26:53;;;;;;;2.67;2.10;;;;;;;15.44;68.17;97598.24;1805855;78;20984;-63
2021/04/30 06:29:20;;;;;;;4.37;2.33;;;;;;;15.52;67.62;97595.59;1810371;78;21106;-64
2021/04/30 06:31:48;;;;;;;3.12;2.45;;;;;;;15.62;67.12;97598.20;1824429;78;20917;-63
2021/04/30 06:34:16;;;;;;;5.60;4.70;;;;;;;15.71;67.08;97593.70;1815305;78;21063;-67
2021/04/30 06:36:44;;;;;;;15.58;13.50;;;;;;;15.77;67.00;97589.05;1824990;78;21599;-65
2021/04/30 06:39:13;;;;;;;10.20;9.20;;;;;;;15.84;66.76;97591.44;1814715;78;21565;-65
2021/04/30 06:41:48;;;;;;;4.78;4.20;;;;;;;15.89;66.78;97591.84;1812688;78;21079;-65
2021/04/30 06:44:16;;;;;;;6.03;3.60;;;;;;;15.95;66.66;97590.33;1828977;77;21012;-64
2021/04/30 06:46:46;;;;;;;4.20;3.02;;;;;;;15.98;66.25;97597.30;1825482;78;21047;-64
2021/04/30 06:49:21;;;;;;;4.70;3.98;;;;;;;16.01;66.38;97596.97;1827306;78;22439;-65
2021/04/30 06:51:50;;;;;;;2.67;2.35;;;;;;;16.04;66.17;97602.91;1822402;78;20872;-67
2021/04/30 06:54:22;;;;;;;2.70;2.50;;;;;;;16.08;65.82;97603.43;1825224;78;21533;-65
2021/04/30 06:56:50;;;;;;;3.50;1.70;;;;;;;16.12;65.45;97608.88;1824946;78;21473;-65
2021/04/30 06:59:19;;;;;;;2.65;1.85;;;;;;;16.15;64.67;97601.79;1813881;78;21019;-66
2021/04/30 07:01:46;;;;;;;2.90;2.22;;;;;;;16.20;64.28;97608.08;1809317;77;21342;-64
2021/04/30 07:04:38;;;;;;;2.42;2.20;;;;;;;16.28;64.19;97611.34;1818071;77;20955;-70
2021/04/30 07:07:06;;;;;;;3.05;1.77;;;;;;;16.35;63.99;97615.08;1820916;78;21003;-66
2021/04/30 07:09:39;;;;;;;2.80;2.02;;;;;;;16.41;63.63;97619.86;1825262;78;21070;-64
2021/04/30 07:12:08;;;;;;;3.12;2.00;;;;;;;16.47;63.40;97608.37;1818514;78;22512;-65
2021/04/30 07:14:37;;;;;;;2.25;1.87;;;;;;;16.53;63.26;97615.84;1810339;78;22365;-66
2021/04/30 07:17:05;;;;;;;3.60;2.33;;;;;;;16.58;63.40;97615.36;1819239;78;20996;-64
2021/04/30 07:19:34;;;;;;;4.70;1.85;;;;;;;16.63;63.41;97613.00;1817238;78;21000;-71
2021/04/30 07:22:03;;;;;;;1.72;1.62;;;;;;;16.68;62.97;97611.16;1814582;78;21492;-66
2021/04/30 07:24:33;;;;;;;2.52;1.92;;;;;;;16.71;62.31;97618.95;1821924;78;20984;-67
2021/04/30 07:27:00;;;;;;;7.35;2.30;;;;;;;16.74;62.44;97626.28;1825667;78;22141;-69
2021/04/30 07:29:28;;;;;;;4.50;3.85;;;;;;;16.76;62.33;97619.30;1824200;77;21722;-66
2021/04/30 07:31:58;;;;;;;5.85;3.22;;;;;;;16.78;62.30;97625.44;1823498;78;21020;-65
2021/04/30 07:34:30;;;;;;;3.27;2.58;;;;;;;16.80;62.79;97630.17;1803161;78;20928;-66
2021/04/30 07:36:58;;;;;;;3.02;2.25;;;;;;;16.79;62.47;97627.98;1824776;78;20936;-66
2021/04/30 07:39:25;;;;;;;2.55;2.08;;;;;;;16.78;62.14;97629.50;1822144;78;21369;-64
2021/04/30 07:41:54;;;;;;;3.90;2.52;;;;;;;16.76;61.70;97628.80;1824525;78;21357;-66
2021/04/30 07:44:21;;;;;;;2.83;2.47;;;;;;;16.75;61.79;97635.25;1826799;78;21048;-66
2021/04/30 07:46:49;;;;;;;6.37;2.72;;;;;;;16.74;61.88;97634.90;1817744;78;21111;-67
2021/04/30 07:49:25;;;;;;;4.55;2.55;;;;;;;16.72;62.19;97630.16;1819945;78;20913;-68
2021/04/30 07:51:57;;;;;;;2.90;2.10;;;;;;;16.71;62.63;97636.58;1826023;78;21316;-66
2021/04/30 07:54:28;;;;;;;5.25;2.12;;;;;;;16.68;62.23;97633.72;1811733;78;20963;-65
2021/04/30 07:56:58;;;;;;;3.77;2.05;;;;;;;16.66;62.08;97628.94;1811095;78;21037;-69
2021/04/30 07:59:27;;;;;;;3.90;2.37;;;;;;;16.66;62.16;97633.00;1815090;78;21072;-67
2021/04/30 08:01:56;;;;;;;2.45;2.02;;;;;;;16.66;61.53;97626.74;1814468;78;21166;-66
2021/04/30 08:04:27;;;;;;;5.03;2.00;;;;;;;16.65;61.64;97626.39;1814343;78;21136;-67
2021/04/30 08:06:56;;;;;;;1.90;1.65;;;;;;;16.65;61.18;97626.39;1824156;78;20905;-68
2021/04/30 08:09:27;;;;;;;12.35;2.00;;;;;;;16.62;61.13;97632.49;1822564;78;21011;-72
2021/04/30 08:11:57;;;;;;;3.90;1.70;;;;;;;16.66;60.76;97634.88;1825944;78;21663;-68
2021/04/30 08:14:30;;;;;;;2.27;2.08;;;;;;;16.68;61.19;97626.94;1819871;78;21013;-66
2021/04/30 08:16:59;;;;;;;7.25;2.22;;;;;;;16.71;61.08;97631.16;1818518;78;21353;-66
2021/04/30 08:19:28;;;;;;;10.30;4.40;;;;;;;16.75;61.09;97632.54;1815737;78;20936;-69
2021/04/30 08:21:58;;;;;;;4.83;2.20;;;;;;;16.80;61.23;97639.67;1818035;78;21036;-66
2021/04/30 08:24:32;;;;;;;2.20;1.80;;;;;;;16.83;60.40;97640.70;1819850;78;21087;-66
2021/04/30 08:27:03;;;;;;;3.02;1.90;;;;;;;16.88;60.61;97639.72;1826110;78;21024;-66
2021/04/30 08:29:31;;;;;;;4.47;1.80;;;;;;;16.92;60.68;97632.13;1823195;78;21247;-68
2021/04/30 08:31:59;;;;;;;4.30;1.60;;;;;;;16.94;59.94;97639.58;1818474;78;20899;-66
2021/04/30 08:34:28;;;;;;;2.25;1.80;;;;;;;16.97;59.73;97641.96;1821523;78;20987;-68
2021/04/30 08:36:59;;;;;;;2.00;1.80;;;;;;;17.01;59.93;97649.25;1823912;78;20901;-67
2021/04/30 08:39:27;;;;;;;3.50;2.40;;;;;;;17.03;59.36;97644.50;1808038;78;20929;-68
2021/04/30 08:41:54;;;;;;;4.17;2.95;;;;;;;17.02;59.59;97650.96;1818463;78;21124;-68
2021/04/30 08:44:25;;;;;;;4.10;2.70;;;;;;;17.02;59.16;97645.02;1824604;78;21455;-67
2021/04/30 08:46:56;;;;;;;3.42;1.90;;;;;;;17.02;59.08;97645.02;1815722;78;21580;-64
2021/04/30 08:49:27;;;;;;;3.27;1.50;;;;;;;16.98;59.24;97640.95;1813931;78;21587;-68
2021/04/30 08:51:55;;;;;;;4.30;1.90;;;;;;;16.94;59.25;97651.27;1812896;78;21016;-68
2021/04/30 08:54:27;;;;;;;2.02;1.30;;;;;;;16.90;59.21;97644.49;1825750;78;21321;-66
2021/04/30 08:57:02;;;;;;;1.55;1.45;;;;;;;16.86;59.31;97656.67;1816107;78;21055;-67
2021/04/30 08:59:30;;;;;;;2.35;1.27;;;;;;;16.83;59.07;97658.84;1826178;78;21363;-67
2021/04/30 09:02:00;;;;;;;2.85;2.25;;;;;;;16.79;59.16;97661.87;1821637;78;20953;-66
2021/04/30 09:04:32;;;;;;;2.17;1.30;;;;;;;16.76;59.39;97677.13;1826746;78;20953;-69
2021/04/30 09:07:20;;;;;;;7.28;3.40;;;;;;;16.73;59.49;97688.81;1781975;78;21194;-70
2021/04/30 09:10:07;;;;;;;5.45;4.45;;;;;;;16.71;61.40;97693.52;1815945;78;21028;-67
2021/04/30 09:12:36;;;;;;;3.27;2.98;;;;;;;16.64;62.93;97700.11;1826217;78;21031;-72
2021/04/30 09:15:10;;;;;;;6.28;3.98;;;;;;;16.53;63.89;97693.10;1823854;78;20997;-69
2021/04/30 09:17:39;;;;;;;4.42;3.45;;;;;;;16.34;64.23;97706.89;1823230;78;21020;-71
2021/04/30 09:20:11;;;;;;;5.05;3.90;;;;;;;16.14;64.89;97712.50;1825468;78;21188;-70
2021/04/30 09:22:41;;;;;;;8.15;4.10;;;;;;;15.99;65.14;97718.17;1821813;78;21123;-69
2021/04/30 09:25:16;;;;;;;3.72;3.12;;;;;;;15.78;65.82;97728.84;1819926;78;20932;-67
2021/04/30 09:27:49;;;;;;;6.20;4.55;;;;;;;15.56;66.71;97733.31;1810210;78;21603;-69
2021/04/30 09:30:31;;;;;;;4.78;3.87;;;;;;;15.36;67.20;97746.99;1812410;78;21031;-69
2021/04/30 09:33:06;;;;;;;7.33;4.85;;;;;;;15.22;68.01;97759.69;1815171;78;21395;-67
2021/04/30 09:35:40;;;;;;;6.78;5.35;;;;;;;15.08;68.58;97762.39;1810232;78;21009;-73
2021/04/30 09:38:33;;;;;;;7.40;6.40;;;;;;;14.97;69.22;97765.63;1805745;78;21047;-75
2021/04/30 09:41:10;;;;;;;7.35;5.30;;;;;;;14.90;69.82;97770.44;1807219;78;21138;-76
2021/04/30 09:43:48;;;;;;;7.87;5.10;;;;;;;14.80;71.15;97765.95;1810192;78;21169;-76
2021/04/30 09:46:35;;;;;;;4.90;4.50;;;;;;;14.70;72.38;97770.53;1798062;78;22057;-77
2021/04/30 09:49:14;;;;;;;6.83;5.45;;;;;;;14.56;73.51;97779.08;1815486;78;21469;-78
2021/04/30 09:51:47;;;;;;;5.37;3.80;;;;;;;14.42;74.65;97792.04;1806627;78;20907;-77
2021/04/30 09:54:27;;;;;;;3.87;3.52;;;;;;;14.24;75.43;97788.41;1811058;78;20979;-76
2021/04/30 09:57:23;;;;;;;3.20;2.90;;;;;;;14.02;76.21;97795.80;1811996;78;20911;-76
2021/04/30 10:00:08;;;;;;;3.40;3.10;;;;;;;13.87;76.93;97803.50;1812107;78;21131;-78
2021/04/30 10:02:46;;;;;;;4.12;2.90;;;;;;;13.70;77.75;97814.48;1811575;78;21647;-76
2021/04/30 10:05:18;;;;;;;4.53;3.40;;;;;;;13.60;78.57;97808.21;1805312;78;21047;-76
2021/04/30 10:07:48;;;;;;;4.28;3.37;;;;;;;13.48;78.96;97816.06;1810482;78;23248;-76
2021/04/30 10:10:20;;;;;;;3.40;3.10;;;;;;;13.37;78.96;97817.91;1811945;78;20967;-76
2021/04/30 10:12:58;;;;;;;3.72;3.35;;;;;;;13.25;79.34;97809.53;1812759;78;21418;-76
2021/04/30 10:15:31;;;;;;;3.77;2.98;;;;;;;13.17;79.71;97816.12;1812674;78;21453;-77
2021/04/30 10:18:00;;;;;;;5.97;4.20;;;;;;;13.11;80.18;97818.02;1812959;78;20980;-75
2021/04/30 10:20:29;;;;;;;8.15;4.28;;;;;;;13.04;80.40;97818.19;1803041;78;20984;-79
2021/04/30 10:22:59;;;;;;;5.85;3.20;;;;;;;12.98;80.63;97812.36;1811003;78;21063;-77
2021/04/30 10:25:28;;;;;;;5.20;3.52;;;;;;;12.94;81.00;97810.91;1810327;77;21194;-77
2021/04/30 10:28:05;;;;;;;4.25;3.33;;;;;;;12.94;81.31;97814.11;1756436;79;21720;-77
2021/04/30 10:31:09;;;;;;;4.22;3.12;;;;;;;12.94;81.57;97812.77;1794299;79;20961;-78
2021/04/30 10:34:06;;;;;;;6.92;4.20;;;;;;;12.95;81.93;97815.32;1783807;79;21085;-74
2021/04/30 10:36:41;;;;;;;5.78;4.15;;;;;;;12.96;82.16;97819.73;1781826;78;21037;-75
2021/04/30 10:39:10;;;;;;;3.55;3.20;;;;;;;12.95;82.22;97822.06;1801848;78;21370;-76
2021/04/30 10:41:39;;;;;;;4.72;3.65;;;;;;;12.96;82.28;97829.17;1756392;78;20938;-76
2021/04/30 10:44:21;;;;;;;4.40;4.00;;;;;;;12.95;82.26;97830.14;1814199;78;21056;-77
2021/04/30 10:47:06;;;;;;;4.97;3.42;;;;;;;12.93;82.43;97827.22;1787153;78;20929;-78
2021/04/30 10:49:36;;;;;;;3.75;3.22;;;;;;;12.90;82.59;97833.75;1800332;78;21064;-79
2021/04/30 10:52:16;;;;;;;3.95;2.77;;;;;;;12.90;82.89;97830.21;1811300;78;21303;-79
2021/04/30 10:54:47;;;;;;;3.33;3.00;;;;;;;12.89;83.17;97833.38;1806951;78;20957;-79
2021/04/30 10:57:23;;;;;;;3.52;3.22;;;;;;;12.91;83.35;97834.59;1783377;78;21634;-79
2021/04/30 10:59:51;;;;;;;3.65;3.25;;;;;;;12.92;83.44;97843.89;1809819;78;21124;-80
2021/04/30 11:02:35;;;;;;;3.60;2.47;;;;;;;12.92;83.68;97838.50;1811320;78;21479;-77
2021/04/30 11:05:11;;;;;;;2.27;2.08;;;;;;;12.94;83.80;97832.47;1751080;80;21876;-78
2021/04/30 11:07:53;;;;;;;2.80;2.60;;;;;;;12.94;83.92;97831.13;1730150;82;21071;-74
2021/04/30 11:10:31;;;;;;;2.42;2.22;;;;;;;12.97;84.14;97832.20;1713930;82;21018;-77
2021/04/30 11:13:16;;;;;;;3.65;2.50;;;;;;;12.98;84.14;97831.73;1732166;81;21013;-78
2021/04/30 11:15:51;;;;;;;3.25;2.42;;;;;;;13.00;84.23;97837.33;1813576;78;20898;-76
2021/04/30 11:18:25;;;;;;;3.08;2.33;;;;;;;13.03;84.30;97827.28;1795830;78;22362;-76
2021/04/30 11:21:10;;;;;;;2.83;2.50;;;;;;;13.05;84.39;97834.22;1797711;78;21163;-78
2021/04/30 11:23:47;;;;;;;3.65;2.58;;;;;;;13.09;84.63;97832.12;1785724;79;21064;-76
2021/04/30 11:26:18;;;;;;;2.77;2.37;;;;;;;13.12;84.48;97823.77;1807472;79;21037;-77
2021/04/30 11:29:01;;;;;;;3.25;2.65;;;;;;;13.14;84.65;97825.83;1802474;77;20985;-77
2021/04/30 11:31:30;;;;;;;3.12;2.72;;;;;;;13.18;84.57;97831.28;1811774;78;21194;-78
2021/04/30 11:34:15;;;;;;;2.72;2.47;;;;;;;13.21;84.27;97829.66;1809163;78;21363;-78
2021/04/30 11:36:48;;;;;;;2.92;2.02;;;;;;;13.22;84.13;97832.73;1809323;79;20949;-78
2021/04/30 11:39:30;;;;;;;2.62;2.15;;;;;;;13.23;84.04;97823.66;1789247;78;20941;-81
2021/04/30 11:42:02;;;;;;;2.17;1.98;;;;;;;13.25;84.01;97830.27;1790380;78;21000;-80
2021/04/30 11:44:32;;;;;;;2.12;1.92;;;;;;;13.27;83.92;97825.07;1761444;79;21408;-79
2021/04/30 11:47:05;;;;;;;3.30;2.58;;;;;;;13.29;83.84;97819.06;1801306;78;20957;-80